Flanders, Canada
Current Conditions -  °F | °C
As of 3:33 AM on Saturday 25 Oct 2014 (Local Time) from KCDD Reporting Station
Clear Clear  
Wind Chill: 45°   Ceiling: Unl
Heat Index: 48°   Visibility: 10mi
Dew Point: 30°   Wind: 8mph
Humidity: 50%   Direction: 270°W
Pressure: 29.79"   Gusts: 20mph
Location:  48.73°N, 92.08°W
Report Text: KCDD 250833Z AUTO 27007G17KT 233V303 10SM CLR 09/M01 A2979 RMK AO2
Loading
Personal Weather Stations






























Interactive Weather Map
Tropical Storm Tracking
New forecast layout! Learn more

10-Day Weather Forecast

Advertisements
Track Severe Weather on mobile